sensor_id;sensor_type;location;lat;lon;timestamp;temperature;humidity
47791;DHT22;33547;49.044;1.156;2022-10-18T00:01:58;19.90;72.90
47791;DHT22;33547;49.044;1.156;2022-10-18T00:04:24;19.90;72.70
47791;DHT22;33547;49.044;1.156;2022-10-18T00:06:50;19.90;72.60
47791;DHT22;33547;49.044;1.156;2022-10-18T00:09:16;20.00;72.50
47791;DHT22;33547;49.044;1.156;2022-10-18T00:11:42;19.90;72.80
47791;DHT22;33547;49.044;1.156;2022-10-18T00:14:07;19.90;72.80
47791;DHT22;33547;49.044;1.156;2022-10-18T00:16:33;19.90;72.80
47791;DHT22;33547;49.044;1.156;2022-10-18T00:18:59;20.00;73.00
47791;DHT22;33547;49.044;1.156;2022-10-18T00:21:26;20.00;73.00
47791;DHT22;33547;49.044;1.156;2022-10-18T00:23:52;19.90;72.60
47791;DHT22;33547;49.044;1.156;2022-10-18T00:26:21;19.90;73.10
47791;DHT22;33547;49.044;1.156;2022-10-18T00:28:58;19.90;72.90
47791;DHT22;33547;49.044;1.156;2022-10-18T00:31:27;20.00;72.40
47791;DHT22;33547;49.044;1.156;2022-10-18T00:34:04;19.90;73.30
47791;DHT22;33547;49.044;1.156;2022-10-18T00:36:34;20.00;73.60
47791;DHT22;33547;49.044;1.156;2022-10-18T00:39:01;19.90;72.90
47791;DHT22;33547;49.044;1.156;2022-10-18T00:41:30;19.90;73.30
47791;DHT22;33547;49.044;1.156;2022-10-18T00:46:45;20.00;72.70
47791;DHT22;33547;49.044;1.156;2022-10-18T00:49:15;20.00;73.30
47791;DHT22;33547;49.044;1.156;2022-10-18T00:51:49;20.00;73.30
47791;DHT22;33547;49.044;1.156;2022-10-18T00:54:21;20.00;73.50
47791;DHT22;33547;49.044;1.156;2022-10-18T00:57:16;20.00;72.90
47791;DHT22;33547;49.044;1.156;2022-10-18T00:59:42;20.00;72.80
47791;DHT22;33547;49.044;1.156;2022-10-18T01:02:09;20.00;73.50
47791;DHT22;33547;49.044;1.156;2022-10-18T01:04:35;19.90;73.30
47791;DHT22;33547;49.044;1.156;2022-10-18T01:16:14;20.00;72.70
47791;DHT22;33547;49.044;1.156;2022-10-18T01:33:58;20.00;73.10
47791;DHT22;33547;49.044;1.156;2022-10-18T01:36:35;20.00;73.10
47791;DHT22;33547;49.044;1.156;2022-10-18T01:39:05;20.00;73.30
47791;DHT22;33547;49.044;1.156;2022-10-18T01:41:34;20.00;73.10
47791;DHT22;33547;49.044;1.156;2022-10-18T01:44:04;20.00;73.90
47791;DHT22;33547;49.044;1.156;2022-10-18T01:46:32;20.00;73.70
47791;DHT22;33547;49.044;1.156;2022-10-18T01:48:59;20.00;73.50
47791;DHT22;33547;49.044;1.156;2022-10-18T01:51:27;20.00;73.10
47791;DHT22;33547;49.044;1.156;2022-10-18T01:53:54;20.00;73.40
47791;DHT22;33547;49.044;1.156;2022-10-18T01:59:21;20.00;73.20
47791;DHT22;33547;49.044;1.156;2022-10-18T02:05:35;20.00;73.40
47791;DHT22;33547;49.044;1.156;2022-10-18T02:11:08;20.00;73.10
47791;DHT22;33547;49.044;1.156;2022-10-18T02:13:47;20.00;73.30
47791;DHT22;33547;49.044;1.156;2022-10-18T02:16:20;20.00;73.60
47791;DHT22;33547;49.044;1.156;2022-10-18T02:18:54;20.00;73.60
47791;DHT22;33547;49.044;1.156;2022-10-18T02:21:27;20.00;73.50
47791;DHT22;33547;49.044;1.156;2022-10-18T02:23:53;20.00;73.90
47791;DHT22;33547;49.044;1.156;2022-10-18T02:26:20;20.00;73.50
47791;DHT22;33547;49.044;1.156;2022-10-18T02:28:46;20.00;73.70
47791;DHT22;33547;49.044;1.156;2022-10-18T02:36:59;20.00;74.10
47791;DHT22;33547;49.044;1.156;2022-10-18T02:39:38;20.00;73.80
47791;DHT22;33547;49.044;1.156;2022-10-18T02:42:09;20.00;73.70
47791;DHT22;33547;49.044;1.156;2022-10-18T02:44:36;20.00;73.90
47791;DHT22;33547;49.044;1.156;2022-10-18T02:47:03;20.00;73.70
47791;DHT22;33547;49.044;1.156;2022-10-18T02:49:30;20.00;73.80
47791;DHT22;33547;49.044;1.156;2022-10-18T02:51:56;20.00;73.60
47791;DHT22;33547;49.044;1.156;2022-10-18T02:54:22;20.00;73.60
47791;DHT22;33547;49.044;1.156;2022-10-18T02:56:48;20.10;73.50
47791;DHT22;33547;49.044;1.156;2022-10-18T02:59:14;20.00;73.80
47791;DHT22;33547;49.044;1.156;2022-10-18T03:01:40;20.10;73.40
47791;DHT22;33547;49.044;1.156;2022-10-18T03:04:06;20.10;73.60
47791;DHT22;33547;49.044;1.156;2022-10-18T03:06:33;20.10;73.50
47791;DHT22;33547;49.044;1.156;2022-10-18T03:09:01;20.10;73.60
47791;DHT22;33547;49.044;1.156;2022-10-18T03:11:27;20.10;73.40
47791;DHT22;33547;49.044;1.156;2022-10-18T03:13:53;20.10;73.60
47791;DHT22;33547;49.044;1.156;2022-10-18T03:16:19;20.10;73.90
47791;DHT22;33547;49.044;1.156;2022-10-18T03:18:45;20.00;73.60
47791;DHT22;33547;49.044;1.156;2022-10-18T03:21:11;20.10;73.60
47791;DHT22;33547;49.044;1.156;2022-10-18T03:23:37;20.10;74.00
47791;DHT22;33547;49.044;1.156;2022-10-18T03:26:02;20.10;73.80
47791;DHT22;33547;49.044;1.156;2022-10-18T03:28:28;20.10;73.70
47791;DHT22;33547;49.044;1.156;2022-10-18T03:30:59;20.10;73.70
47791;DHT22;33547;49.044;1.156;2022-10-18T03:33:26;20.10;73.60
47791;DHT22;33547;49.044;1.156;2022-10-18T03:35:53;20.10;73.70
47791;DHT22;33547;49.044;1.156;2022-10-18T03:38:18;20.10;73.50
47791;DHT22;33547;49.044;1.156;2022-10-18T03:40:44;20.10;73.50
47791;DHT22;33547;49.044;1.156;2022-10-18T03:43:10;20.10;74.10
47791;DHT22;33547;49.044;1.156;2022-10-18T03:45:36;20.10;73.70
47791;DHT22;33547;49.044;1.156;2022-10-18T03:48:01;20.10;73.60
47791;DHT22;33547;49.044;1.156;2022-10-18T03:50:27;20.10;74.20
47791;DHT22;33547;49.044;1.156;2022-10-18T03:52:53;20.10;73.70
47791;DHT22;33547;49.044;1.156;2022-10-18T03:55:20;20.10;73.60
47791;DHT22;33547;49.044;1.156;2022-10-18T03:57:46;20.10;73.70
47791;DHT22;33547;49.044;1.156;2022-10-18T04:00:12;20.10;74.10
47791;DHT22;33547;49.044;1.156;2022-10-18T04:02:38;20.10;73.90
47791;DHT22;33547;49.044;1.156;2022-10-18T04:05:04;20.10;74.00
47791;DHT22;33547;49.044;1.156;2022-10-18T04:07:32;20.10;73.70
47791;DHT22;33547;49.044;1.156;2022-10-18T04:09:59;20.10;74.20
47791;DHT22;33547;49.044;1.156;2022-10-18T04:12:25;20.10;73.90
47791;DHT22;33547;49.044;1.156;2022-10-18T04:14:50;20.10;74.00
47791;DHT22;33547;49.044;1.156;2022-10-18T04:17:16;20.10;74.00
47791;DHT22;33547;49.044;1.156;2022-10-18T04:19:42;20.10;74.10
47791;DHT22;33547;49.044;1.156;2022-10-18T04:22:08;20.10;74.10
47791;DHT22;33547;49.044;1.156;2022-10-18T04:24:36;20.10;74.40
47791;DHT22;33547;49.044;1.156;2022-10-18T04:27:03;20.10;74.40
47791;DHT22;33547;49.044;1.156;2022-10-18T04:29:30;20.10;73.60
47791;DHT22;33547;49.044;1.156;2022-10-18T04:31:56;20.10;73.50
47791;DHT22;33547;49.044;1.156;2022-10-18T04:34:22;20.10;73.90
47791;DHT22;33547;49.044;1.156;2022-10-18T04:36:47;20.10;73.90
47791;DHT22;33547;49.044;1.156;2022-10-18T04:39:13;20.10;73.70
47791;DHT22;33547;49.044;1.156;2022-10-18T04:41:39;20.10;73.80
47791;DHT22;33547;49.044;1.156;2022-10-18T04:44:05;20.20;73.90
47791;DHT22;33547;49.044;1.156;2022-10-18T04:46:31;20.20;73.60
47791;DHT22;33547;49.044;1.156;2022-10-18T04:48:57;20.20;73.70
47791;DHT22;33547;49.044;1.156;2022-10-18T04:51:26;20.20;73.90
47791;DHT22;33547;49.044;1.156;2022-10-18T04:53:55;20.20;74.20
47791;DHT22;33547;49.044;1.156;2022-10-18T04:56:21;20.20;73.70
47791;DHT22;33547;49.044;1.156;2022-10-18T04:58:47;20.20;73.30
47791;DHT22;33547;49.044;1.156;2022-10-18T05:01:14;20.20;73.40
47791;DHT22;33547;49.044;1.156;2022-10-18T05:03:40;20.20;73.30
47791;DHT22;33547;49.044;1.156;2022-10-18T05:06:09;20.20;73.20
47791;DHT22;33547;49.044;1.156;2022-10-18T05:08:35;20.20;73.30
47791;DHT22;33547;49.044;1.156;2022-10-18T05:11:03;20.20;73.00
47791;DHT22;33547;49.044;1.156;2022-10-18T05:13:29;20.20;73.20
47791;DHT22;33547;49.044;1.156;2022-10-18T05:15:55;20.20;73.00
47791;DHT22;33547;49.044;1.156;2022-10-18T05:18:25;20.20;73.00
47791;DHT22;33547;49.044;1.156;2022-10-18T05:20:54;20.20;73.00
47791;DHT22;33547;49.044;1.156;2022-10-18T05:23:20;20.20;72.90
47791;DHT22;33547;49.044;1.156;2022-10-18T05:25:46;20.20;73.00
47791;DHT22;33547;49.044;1.156;2022-10-18T05:28:12;20.20;73.00
47791;DHT22;33547;49.044;1.156;2022-10-18T05:30:39;20.20;72.80
47791;DHT22;33547;49.044;1.156;2022-10-18T05:33:06;20.30;72.80
47791;DHT22;33547;49.044;1.156;2022-10-18T05:35:32;20.30;73.00
47791;DHT22;33547;49.044;1.156;2022-10-18T05:38:02;20.40;73.60
47791;DHT22;33547;49.044;1.156;2022-10-18T05:40:28;20.30;73.60
47791;DHT22;33547;49.044;1.156;2022-10-18T05:42:54;20.30;72.90
47791;DHT22;33547;49.044;1.156;2022-10-18T05:45:20;20.30;72.90
47791;DHT22;33547;49.044;1.156;2022-10-18T05:47:46;20.30;72.70
47791;DHT22;33547;49.044;1.156;2022-10-18T05:50:11;20.30;72.50
47791;DHT22;33547;49.044;1.156;2022-10-18T05:52:38;20.30;72.20
47791;DHT22;33547;49.044;1.156;2022-10-18T05:55:04;20.30;72.10
47791;DHT22;33547;49.044;1.156;2022-10-18T05:57:31;20.30;71.80
47791;DHT22;33547;49.044;1.156;2022-10-18T05:59:57;20.30;71.80
47791;DHT22;33547;49.044;1.156;2022-10-18T06:02:23;20.30;72.10
47791;DHT22;33547;49.044;1.156;2022-10-18T06:04:48;20.30;72.00
47791;DHT22;33547;49.044;1.156;2022-10-18T06:07:15;20.30;71.90
47791;DHT22;33547;49.044;1.156;2022-10-18T06:09:40;20.30;71.90
47791;DHT22;33547;49.044;1.156;2022-10-18T06:12:06;20.30;71.80
47791;DHT22;33547;49.044;1.156;2022-10-18T06:14:34;20.30;71.80
47791;DHT22;33547;49.044;1.156;2022-10-18T06:17:00;20.30;71.70
47791;DHT22;33547;49.044;1.156;2022-10-18T06:19:26;20.30;71.40
47791;DHT22;33547;49.044;1.156;2022-10-18T06:21:52;20.30;71.60
47791;DHT22;33547;49.044;1.156;2022-10-18T06:24:18;20.30;71.40
47791;DHT22;33547;49.044;1.156;2022-10-18T06:26:46;20.30;71.50
47791;DHT22;33547;49.044;1.156;2022-10-18T06:29:12;20.30;71.40
47791;DHT22;33547;49.044;1.156;2022-10-18T06:31:38;20.30;71.20
47791;DHT22;33547;49.044;1.156;2022-10-18T06:34:04;20.30;71.20
47791;DHT22;33547;49.044;1.156;2022-10-18T06:36:30;20.30;71.10
47791;DHT22;33547;49.044;1.156;2022-10-18T06:38:56;20.20;71.10
47791;DHT22;33547;49.044;1.156;2022-10-18T06:41:22;20.20;71.00
47791;DHT22;33547;49.044;1.156;2022-10-18T06:43:49;20.20;71.00
47791;DHT22;33547;49.044;1.156;2022-10-18T06:46:15;20.20;71.20
47791;DHT22;33547;49.044;1.156;2022-10-18T06:48:41;20.20;71.20
47791;DHT22;33547;49.044;1.156;2022-10-18T06:51:08;20.20;71.10
47791;DHT22;33547;49.044;1.156;2022-10-18T06:53:37;20.20;71.20
47791;DHT22;33547;49.044;1.156;2022-10-18T06:56:09;20.20;71.20
47791;DHT22;33547;49.044;1.156;2022-10-18T06:58:36;20.20;71.40
47791;DHT22;33547;49.044;1.156;2022-10-18T07:01:11;20.20;71.10
47791;DHT22;33547;49.044;1.156;2022-10-18T07:03:38;20.20;71.10
47791;DHT22;33547;49.044;1.156;2022-10-18T07:06:06;20.20;71.30
47791;DHT22;33547;49.044;1.156;2022-10-18T07:08:34;20.20;71.20
47791;DHT22;33547;49.044;1.156;2022-10-18T07:11:00;20.20;71.30
47791;DHT22;33547;49.044;1.156;2022-10-18T07:13:28;20.10;71.20
47791;DHT22;33547;49.044;1.156;2022-10-18T07:16:06;20.10;71.30
47791;DHT22;33547;49.044;1.156;2022-10-18T07:18:42;20.20;71.20
47791;DHT22;33547;49.044;1.156;2022-10-18T07:21:12;20.10;71.30
47791;DHT22;33547;49.044;1.156;2022-10-18T07:23:40;20.20;71.40
47791;DHT22;33547;49.044;1.156;2022-10-18T07:26:28;20.10;71.30
47791;DHT22;33547;49.044;1.156;2022-10-18T07:29:04;20.10;71.20
47791;DHT22;33547;49.044;1.156;2022-10-18T07:31:36;20.10;71.20
47791;DHT22;33547;49.044;1.156;2022-10-18T07:34:07;20.10;71.20
47791;DHT22;33547;49.044;1.156;2022-10-18T07:36:33;20.10;71.30
47791;DHT22;33547;49.044;1.156;2022-10-18T07:38:59;20.10;71.30
47791;DHT22;33547;49.044;1.156;2022-10-18T07:41:25;20.10;71.00
47791;DHT22;33547;49.044;1.156;2022-10-18T07:43:52;20.10;70.90
47791;DHT22;33547;49.044;1.156;2022-10-18T07:46:20;20.10;71.00
47791;DHT22;33547;49.044;1.156;2022-10-18T07:48:47;20.10;71.30
47791;DHT22;33547;49.044;1.156;2022-10-18T07:51:14;20.10;71.10
47791;DHT22;33547;49.044;1.156;2022-10-18T07:53:40;20.10;70.90
47791;DHT22;33547;49.044;1.156;2022-10-18T07:56:09;20.10;70.90
47791;DHT22;33547;49.044;1.156;2022-10-18T07:58:41;20.10;70.90
47791;DHT22;33547;49.044;1.156;2022-10-18T08:01:08;20.10;71.00
47791;DHT22;33547;49.044;1.156;2022-10-18T08:03:35;20.10;71.00
47791;DHT22;33547;49.044;1.156;2022-10-18T08:06:03;20.00;70.90
47791;DHT22;33547;49.044;1.156;2022-10-18T08:08:31;20.10;70.80
47791;DHT22;33547;49.044;1.156;2022-10-18T08:13:34;20.10;70.80
47791;DHT22;33547;49.044;1.156;2022-10-18T08:16:03;20.10;70.90
47791;DHT22;33547;49.044;1.156;2022-10-18T08:18:30;20.00;70.90
47791;DHT22;33547;49.044;1.156;2022-10-18T08:20:58;20.00;70.80
47791;DHT22;33547;49.044;1.156;2022-10-18T08:23:25;20.00;71.00
47791;DHT22;33547;49.044;1.156;2022-10-18T08:25:51;20.10;70.80
47791;DHT22;33547;49.044;1.156;2022-10-18T08:28:16;20.00;70.80
47791;DHT22;33547;49.044;1.156;2022-10-18T08:30:42;20.00;71.40
47791;DHT22;33547;49.044;1.156;2022-10-18T08:33:09;20.00;70.80
47791;DHT22;33547;49.044;1.156;2022-10-18T08:35:35;20.00;71.00
47791;DHT22;33547;49.044;1.156;2022-10-18T08:38:01;20.10;71.50
47791;DHT22;33547;49.044;1.156;2022-10-18T08:40:27;20.00;71.00
47791;DHT22;33547;49.044;1.156;2022-10-18T08:43:07;20.00;71.60
47791;DHT22;33547;49.044;1.156;2022-10-18T08:45:39;20.00;70.90
47791;DHT22;33547;49.044;1.156;2022-10-18T08:48:18;20.00;70.80
47791;DHT22;33547;49.044;1.156;2022-10-18T08:50:49;20.00;70.90
47791;DHT22;33547;49.044;1.156;2022-10-18T08:53:23;20.00;71.50
47791;DHT22;33547;49.044;1.156;2022-10-18T08:56:13;20.00;70.70
47791;DHT22;33547;49.044;1.156;2022-10-18T08:58:43;20.00;70.80
47791;DHT22;33547;49.044;1.156;2022-10-18T09:01:46;20.00;70.80
47791;DHT22;33547;49.044;1.156;2022-10-18T09:17:16;20.00;70.70
47791;DHT22;33547;49.044;1.156;2022-10-18T09:20:10;19.90;70.50
47791;DHT22;33547;49.044;1.156;2022-10-18T09:22:58;19.90;70.50
47791;DHT22;33547;49.044;1.156;2022-10-18T09:25:44;20.00;70.60
47791;DHT22;33547;49.044;1.156;2022-10-18T09:36:37;19.90;70.80
47791;DHT22;33547;49.044;1.156;2022-10-18T09:39:13;19.90;70.80
47791;DHT22;33547;49.044;1.156;2022-10-18T09:44:40;19.90;71.00
47791;DHT22;33547;49.044;1.156;2022-10-18T09:47:33;19.90;71.00
47791;DHT22;33547;49.044;1.156;2022-10-18T09:50:31;19.90;71.00
47791;DHT22;33547;49.044;1.156;2022-10-18T09:56:15;19.90;70.90
47791;DHT22;33547;49.044;1.156;2022-10-18T09:58:51;19.90;71.20
47791;DHT22;33547;49.044;1.156;2022-10-18T10:01:29;19.90;71.20
47791;DHT22;33547;49.044;1.156;2022-10-18T10:03:56;19.90;71.40
47791;DHT22;33547;49.044;1.156;2022-10-18T10:06:28;19.90;71.50
47791;DHT22;33547;49.044;1.156;2022-10-18T10:09:15;19.90;71.50
47791;DHT22;33547;49.044;1.156;2022-10-18T10:11:47;19.90;71.50
47791;DHT22;33547;49.044;1.156;2022-10-18T10:14:18;19.90;71.50
47791;DHT22;33547;49.044;1.156;2022-10-18T10:17:02;19.90;71.60
47791;DHT22;33547;49.044;1.156;2022-10-18T10:19:39;19.90;71.60
47791;DHT22;33547;49.044;1.156;2022-10-18T10:22:26;19.90;71.60
47791;DHT22;33547;49.044;1.156;2022-10-18T10:24:58;19.80;71.60
47791;DHT22;33547;49.044;1.156;2022-10-18T10:27:41;19.90;71.70
47791;DHT22;33547;49.044;1.156;2022-10-18T10:32:55;19.90;71.70
47791;DHT22;33547;49.044;1.156;2022-10-18T10:35:33;19.90;71.90
47791;DHT22;33547;49.044;1.156;2022-10-18T10:38:04;19.90;71.90
47791;DHT22;33547;49.044;1.156;2022-10-18T10:41:13;19.90;71.90
47791;DHT22;33547;49.044;1.156;2022-10-18T10:43:35;19.90;71.80
47791;DHT22;33547;49.044;1.156;2022-10-18T10:46:06;19.90;72.50
47791;DHT22;33547;49.044;1.156;2022-10-18T10:48:48;19.90;71.80
47791;DHT22;33547;49.044;1.156;2022-10-18T10:51:26;19.90;71.70
47791;DHT22;33547;49.044;1.156;2022-10-18T10:54:00;19.90;71.70
47791;DHT22;33547;49.044;1.156;2022-10-18T10:56:29;19.90;71.70
47791;DHT22;33547;49.044;1.156;2022-10-18T10:59:07;19.90;71.60
47791;DHT22;33547;49.044;1.156;2022-10-18T11:01:39;19.90;71.40
47791;DHT22;33547;49.044;1.156;2022-10-18T11:04:41;19.90;71.70
47791;DHT22;33547;49.044;1.156;2022-10-18T11:15:35;19.90;71.50
47791;DHT22;33547;49.044;1.156;2022-10-18T11:21:31;19.90;71.50
47791;DHT22;33547;49.044;1.156;2022-10-18T11:23:53;19.90;71.40
47791;DHT22;33547;49.044;1.156;2022-10-18T11:31:40;19.90;71.50
47791;DHT22;33547;49.044;1.156;2022-10-18T11:40:19;19.90;71.70
47791;DHT22;33547;49.044;1.156;2022-10-18T11:46:31;19.90;71.50
47791;DHT22;33547;49.044;1.156;2022-10-18T11:52:48;19.90;71.60
47791;DHT22;33547;49.044;1.156;2022-10-18T12:01:02;19.90;71.60
47791;DHT22;33547;49.044;1.156;2022-10-18T12:03:52;19.90;71.60
47791;DHT22;33547;49.044;1.156;2022-10-18T12:06:25;19.90;71.60
47791;DHT22;33547;49.044;1.156;2022-10-18T12:08:59;19.90;72.30
47791;DHT22;33547;49.044;1.156;2022-10-18T12:11:38;19.90;71.70
47791;DHT22;33547;49.044;1.156;2022-10-18T12:14:32;19.90;71.60
47791;DHT22;33547;49.044;1.156;2022-10-18T12:17:07;19.90;71.60
47791;DHT22;33547;49.044;1.156;2022-10-18T12:19:37;19.90;71.70
47791;DHT22;33547;49.044;1.156;2022-10-18T12:22:20;19.90;71.90
47791;DHT22;33547;49.044;1.156;2022-10-18T12:24:49;19.90;72.30
47791;DHT22;33547;49.044;1.156;2022-10-18T12:27:15;19.90;71.70
47791;DHT22;33547;49.044;1.156;2022-10-18T12:29:54;19.90;71.60
47791;DHT22;33547;49.044;1.156;2022-10-18T12:32:31;20.00;71.60
47791;DHT22;33547;49.044;1.156;2022-10-18T12:35:10;19.90;71.60
47791;DHT22;33547;49.044;1.156;2022-10-18T12:37:56;20.00;71.60
47791;DHT22;33547;49.044;1.156;2022-10-18T12:40:52;20.00;71.70
47791;DHT22;33547;49.044;1.156;2022-10-18T12:43:28;20.00;71.90
47791;DHT22;33547;49.044;1.156;2022-10-18T12:46:03;20.00;71.70
47791;DHT22;33547;49.044;1.156;2022-10-18T12:48:42;20.00;71.70
47791;DHT22;33547;49.044;1.156;2022-10-18T12:51:22;20.00;72.00
47791;DHT22;33547;49.044;1.156;2022-10-18T12:59:22;20.00;71.90
47791;DHT22;33547;49.044;1.156;2022-10-18T13:15:02;20.00;71.90
47791;DHT22;33547;49.044;1.156;2022-10-18T13:17:56;20.00;71.70
47791;DHT22;33547;49.044;1.156;2022-10-18T13:29:04;20.00;71.90
47791;DHT22;33547;49.044;1.156;2022-10-18T13:31:48;20.00;71.90
47791;DHT22;33547;49.044;1.156;2022-10-18T13:34:23;20.00;71.90
47791;DHT22;33547;49.044;1.156;2022-10-18T13:37:02;20.00;71.90
47791;DHT22;33547;49.044;1.156;2022-10-18T13:39:50;20.00;71.90
47791;DHT22;33547;49.044;1.156;2022-10-18T13:42:22;20.00;71.90
47791;DHT22;33547;49.044;1.156;2022-10-18T13:44:53;20.00;72.00
47791;DHT22;33547;49.044;1.156;2022-10-18T13:47:34;20.00;71.80
47791;DHT22;33547;49.044;1.156;2022-10-18T13:50:07;20.00;71.90
47791;DHT22;33547;49.044;1.156;2022-10-18T14:03:26;20.00;71.90
47791;DHT22;33547;49.044;1.156;2022-10-18T14:09:02;20.00;71.80
47791;DHT22;33547;49.044;1.156;2022-10-18T14:11:41;20.00;72.00
47791;DHT22;33547;49.044;1.156;2022-10-18T14:14:29;20.00;72.00
47791;DHT22;33547;49.044;1.156;2022-10-18T14:20:25;20.00;71.90
47791;DHT22;33547;49.044;1.156;2022-10-18T14:28:39;20.00;71.90
47791;DHT22;33547;49.044;1.156;2022-10-18T14:31:11;20.00;72.00
47791;DHT22;33547;49.044;1.156;2022-10-18T14:33:51;20.00;71.90
47791;DHT22;33547;49.044;1.156;2022-10-18T14:39:01;20.00;71.90
47791;DHT22;33547;49.044;1.156;2022-10-18T14:41:50;20.00;71.90
47791;DHT22;33547;49.044;1.156;2022-10-18T14:44:24;20.00;71.70
47791;DHT22;33547;49.044;1.156;2022-10-18T14:46:58;20.00;71.90
47791;DHT22;33547;49.044;1.156;2022-10-18T14:52:04;20.00;71.90
47791;DHT22;33547;49.044;1.156;2022-10-18T14:54:32;20.00;71.90
47791;DHT22;33547;49.044;1.156;2022-10-18T14:57:02;20.00;71.90
47791;DHT22;33547;49.044;1.156;2022-10-18T14:59:32;20.00;71.90
47791;DHT22;33547;49.044;1.156;2022-10-18T15:02:24;20.10;72.60
47791;DHT22;33547;49.044;1.156;2022-10-18T15:04:57;20.10;72.30
47791;DHT22;33547;49.044;1.156;2022-10-18T15:07:26;20.10;72.50
47791;DHT22;33547;49.044;1.156;2022-10-18T15:10:00;20.10;73.00
47791;DHT22;33547;49.044;1.156;2022-10-18T15:12:30;20.10;72.60
47791;DHT22;33547;49.044;1.156;2022-10-18T15:14:57;20.10;72.80
47791;DHT22;33547;49.044;1.156;2022-10-18T15:17:30;20.10;72.80
47791;DHT22;33547;49.044;1.156;2022-10-18T15:19:58;20.10;73.20
47791;DHT22;33547;49.044;1.156;2022-10-18T15:22:28;20.10;73.60
47791;DHT22;33547;49.044;1.156;2022-10-18T15:25:14;20.10;72.80
47791;DHT22;33547;49.044;1.156;2022-10-18T15:27:55;20.10;72.80
47791;DHT22;33547;49.044;1.156;2022-10-18T15:30:26;20.10;72.70
47791;DHT22;33547;49.044;1.156;2022-10-18T15:32:59;20.10;73.20
47791;DHT22;33547;49.044;1.156;2022-10-18T15:35:32;20.10;73.50
47791;DHT22;33547;49.044;1.156;2022-10-18T15:38:15;20.00;73.00
47791;DHT22;33547;49.044;1.156;2022-10-18T15:41:34;20.10;72.90
47791;DHT22;33547;49.044;1.156;2022-10-18T15:44:46;20.10;73.20
47791;DHT22;33547;49.044;1.156;2022-10-18T15:54:46;20.10;72.90
47791;DHT22;33547;49.044;1.156;2022-10-18T15:57:12;20.10;72.90
47791;DHT22;33547;49.044;1.156;2022-10-18T15:59:52;20.10;73.00
47791;DHT22;33547;49.044;1.156;2022-10-18T16:02:19;20.10;72.80
47791;DHT22;33547;49.044;1.156;2022-10-18T16:04:45;20.10;72.80
47791;DHT22;33547;49.044;1.156;2022-10-18T16:07:12;20.10;73.10
47791;DHT22;33547;49.044;1.156;2022-10-18T16:09:38;20.10;73.20
47791;DHT22;33547;49.044;1.156;2022-10-18T16:12:04;20.10;73.80
47791;DHT22;33547;49.044;1.156;2022-10-18T16:14:30;20.10;73.60
47791;DHT22;33547;49.044;1.156;2022-10-18T16:17:05;20.10;73.60
47791;DHT22;33547;49.044;1.156;2022-10-18T16:19:32;20.10;73.40
47791;DHT22;33547;49.044;1.156;2022-10-18T16:21:58;20.10;73.50
47791;DHT22;33547;49.044;1.156;2022-10-18T16:24:24;20.10;73.70
47791;DHT22;33547;49.044;1.156;2022-10-18T16:26:51;20.10;73.70
47791;DHT22;33547;49.044;1.156;2022-10-18T16:29:20;20.10;73.50
47791;DHT22;33547;49.044;1.156;2022-10-18T16:31:50;20.10;73.70
47791;DHT22;33547;49.044;1.156;2022-10-18T16:34:18;20.10;73.50
47791;DHT22;33547;49.044;1.156;2022-10-18T16:36:44;20.20;73.50
47791;DHT22;33547;49.044;1.156;2022-10-18T16:39:15;20.10;73.50
47791;DHT22;33547;49.044;1.156;2022-10-18T16:41:43;20.20;73.40
47791;DHT22;33547;49.044;1.156;2022-10-18T16:44:09;20.20;73.60
47791;DHT22;33547;49.044;1.156;2022-10-18T16:46:35;20.20;73.50
47791;DHT22;33547;49.044;1.156;2022-10-18T16:49:01;20.20;73.60
47791;DHT22;33547;49.044;1.156;2022-10-18T16:51:28;20.20;73.70
47791;DHT22;33547;49.044;1.156;2022-10-18T16:53:54;20.20;73.50
47791;DHT22;33547;49.044;1.156;2022-10-18T16:56:28;20.20;73.80
47791;DHT22;33547;49.044;1.156;2022-10-18T16:58:55;20.20;73.50
47791;DHT22;33547;49.044;1.156;2022-10-18T17:01:22;20.20;73.90
47791;DHT22;33547;49.044;1.156;2022-10-18T17:03:50;20.20;73.70
47791;DHT22;33547;49.044;1.156;2022-10-18T17:06:24;20.20;73.80
47791;DHT22;33547;49.044;1.156;2022-10-18T17:08:56;20.20;73.80
47791;DHT22;33547;49.044;1.156;2022-10-18T17:11:25;20.20;73.90
47791;DHT22;33547;49.044;1.156;2022-10-18T17:13:52;20.20;73.80
47791;DHT22;33547;49.044;1.156;2022-10-18T17:16:29;20.20;73.60
47791;DHT22;33547;49.044;1.156;2022-10-18T17:19:00;20.20;73.40
47791;DHT22;33547;49.044;1.156;2022-10-18T17:21:28;20.20;73.90
47791;DHT22;33547;49.044;1.156;2022-10-18T17:23:56;20.30;73.90
47791;DHT22;33547;49.044;1.156;2022-10-18T17:26:30;20.20;73.40
47791;DHT22;33547;49.044;1.156;2022-10-18T17:29:05;20.30;73.80
47791;DHT22;33547;49.044;1.156;2022-10-18T17:31:32;20.30;73.30
47791;DHT22;33547;49.044;1.156;2022-10-18T17:34:00;20.30;73.60
47791;DHT22;33547;49.044;1.156;2022-10-18T17:36:26;20.30;73.70
47791;DHT22;33547;49.044;1.156;2022-10-18T17:38:53;20.30;73.60
47791;DHT22;33547;49.044;1.156;2022-10-18T17:41:20;20.30;73.30
47791;DHT22;33547;49.044;1.156;2022-10-18T17:43:46;20.30;73.30
47791;DHT22;33547;49.044;1.156;2022-10-18T17:46:13;20.20;73.20
47791;DHT22;33547;49.044;1.156;2022-10-18T17:48:40;20.30;73.10
47791;DHT22;33547;49.044;1.156;2022-10-18T17:51:12;20.20;73.10
47791;DHT22;33547;49.044;1.156;2022-10-18T17:53:39;20.20;73.00
47791;DHT22;33547;49.044;1.156;2022-10-18T17:56:06;20.20;72.90
47791;DHT22;33547;49.044;1.156;2022-10-18T17:58:33;20.30;73.00
47791;DHT22;33547;49.044;1.156;2022-10-18T18:01:12;20.20;72.80
47791;DHT22;33547;49.044;1.156;2022-10-18T18:03:40;20.20;72.70
47791;DHT22;33547;49.044;1.156;2022-10-18T18:08:42;20.20;72.70
47791;DHT22;33547;49.044;1.156;2022-10-18T18:11:08;20.20;72.40
47791;DHT22;33547;49.044;1.156;2022-10-18T18:13:34;20.20;72.60
47791;DHT22;33547;49.044;1.156;2022-10-18T18:18:36;20.20;72.50
47791;DHT22;33547;49.044;1.156;2022-10-18T18:21:02;20.20;72.50
47791;DHT22;33547;49.044;1.156;2022-10-18T18:23:28;20.20;72.50
47791;DHT22;33547;49.044;1.156;2022-10-18T18:25:55;20.20;72.40
47791;DHT22;33547;49.044;1.156;2022-10-18T18:28:21;20.20;72.40
47791;DHT22;33547;49.044;1.156;2022-10-18T18:30:47;20.20;72.30
47791;DHT22;33547;49.044;1.156;2022-10-18T18:33:13;20.20;72.30
47791;DHT22;33547;49.044;1.156;2022-10-18T18:35:39;20.20;72.30
47791;DHT22;33547;49.044;1.156;2022-10-18T18:38:05;20.20;72.30
47791;DHT22;33547;49.044;1.156;2022-10-18T18:40:31;20.20;72.20
47791;DHT22;33547;49.044;1.156;2022-10-18T18:42:57;20.20;72.20
47791;DHT22;33547;49.044;1.156;2022-10-18T18:45:23;20.20;72.10
47791;DHT22;33547;49.044;1.156;2022-10-18T18:47:48;20.20;72.20
47791;DHT22;33547;49.044;1.156;2022-10-18T18:50:14;20.20;72.20
47791;DHT22;33547;49.044;1.156;2022-10-18T18:52:40;20.20;72.30